Time;durP1;ratioP1;P1;durP2;ratioP2;P2;SDS_P1;SDS_P2;PMS_P1;PMS_P2;Temp;Humidity;BMP_temperature;BMP_pressure;BME280_temperature;BME280_humidity;BME280_pressure;Samples;Min_cycle;Max_cycle;Signal;HPM_P1;HPM_P2
2023/01/13 00:00:42;;;;;;;1.38;1.05;;;;;;;;;;5060741;28;20155;-85
2023/01/13 00:03:07;;;;;;;1.25;1.13;;;;;;;;;;5059303;28;20025;-83
2023/01/13 00:05:33;;;;;;;2.17;1.00;;;;;;;;;;5056727;28;20033;-86
2023/01/13 00:07:58;;;;;;;1.02;1.02;;;;;;;;;;5063039;28;20123;-85
2023/01/13 00:10:24;;;;;;;1.95;1.67;;;;;;;;;;5059209;28;20484;-84
2023/01/13 00:12:50;;;;;;;1.30;1.10;;;;;;;;;;5059845;28;20036;-85
2023/01/13 00:15:15;;;;;;;1.38;1.27;;;;;;;;;;5055173;28;20031;-82
2023/01/13 00:17:41;;;;;;;2.05;1.20;;;;;;;;;;5058324;28;20017;-84
2023/01/13 00:20:07;;;;;;;1.45;1.20;;;;;;;;;;5055368;28;20131;-85
2023/01/13 00:22:35;;;;;;;1.33;1.20;;;;;;;;;;5062631;28;20059;-84
2023/01/13 00:25:03;;;;;;;1.20;1.02;;;;;;;;;;5061315;28;20028;-87
2023/01/13 00:27:28;;;;;;;1.98;1.45;;;;;;;;;;5052111;28;20485;-86
2023/01/13 00:29:54;;;;;;;1.70;1.35;;;;;;;;;;5060112;28;20017;-85
2023/01/13 00:32:19;;;;;;;1.67;1.35;;;;;;;;;;5070945;28;20032;-83
2023/01/13 00:34:44;;;;;;;1.02;0.98;;;;;;;;;;5068708;28;20021;-81
2023/01/13 00:37:13;;;;;;;1.75;1.55;;;;;;;;;;5062723;28;20043;-81
2023/01/13 00:39:39;;;;;;;1.80;1.05;;;;;;;;;;5058254;28;20024;-83
2023/01/13 00:44:49;;;;;;;2.05;1.20;;;;;;;;;;5061766;28;20078;-81
2023/01/13 00:47:14;;;;;;;1.35;1.13;;;;;;;;;;5059670;28;20369;-84
2023/01/13 00:49:39;;;;;;;1.48;0.98;;;;;;;;;;5057979;28;20036;-84
2023/01/13 00:52:05;;;;;;;1.15;1.05;;;;;;;;;;5060871;28;20108;-84
2023/01/13 00:54:30;;;;;;;1.55;1.20;;;;;;;;;;5056122;28;20060;-83
2023/01/13 00:56:56;;;;;;;0.77;0.43;;;;;;;;;;5058913;28;20021;-85
2023/01/13 00:59:21;;;;;;;2.80;0.90;;;;;;;;;;5065928;28;20111;-82
2023/01/13 01:01:50;;;;;;;0.80;0.80;;;;;;;;;;5067134;28;20025;-87
2023/01/13 01:04:15;;;;;;;1.13;0.98;;;;;;;;;;5055982;28;20033;-84
2023/01/13 01:06:40;;;;;;;1.38;0.88;;;;;;;;;;5063397;28;20039;-86
2023/01/13 01:09:06;;;;;;;1.80;1.58;;;;;;;;;;5060874;28;20366;-83
2023/01/13 01:11:32;;;;;;;0.85;0.85;;;;;;;;;;5060816;28;20020;-83
2023/01/13 01:14:00;;;;;;;0.80;0.80;;;;;;;;;;5065422;28;20021;-82
2023/01/13 01:16:28;;;;;;;0.70;0.70;;;;;;;;;;5064330;28;20545;-87
2023/01/13 01:18:54;;;;;;;1.13;0.85;;;;;;;;;;5056420;28;20036;-82
2023/01/13 01:21:22;;;;;;;0.52;0.52;;;;;;;;;;5055856;28;20036;-83
2023/01/13 01:23:47;;;;;;;0.98;0.88;;;;;;;;;;5053367;28;20393;-82
2023/01/13 01:26:16;;;;;;;7.57;1.33;;;;;;;;;;5066053;28;20028;-85
2023/01/13 01:28:42;;;;;;;1.02;0.77;;;;;;;;;;5065611;28;20036;-88
2023/01/13 01:31:12;;;;;;;0.55;0.55;;;;;;;;;;5066246;28;20520;-82
2023/01/13 01:33:39;;;;;;;0.88;0.82;;;;;;;;;;5064780;28;20025;-81
2023/01/13 01:36:06;;;;;;;0.52;0.43;;;;;;;;;;5056044;28;20141;-82
2023/01/13 01:38:32;;;;;;;1.65;0.98;;;;;;;;;;5062429;28;20033;-83
2023/01/13 01:40:58;;;;;;;0.57;0.57;;;;;;;;;;5060027;28;20021;-83
2023/01/13 01:44:01;;;;;;;1.15;0.80;;;;;;;;;;5060367;28;20441;-84
2023/01/13 01:46:41;;;;;;;1.45;1.13;;;;;;;;;;5056520;28;20436;-87
2023/01/13 01:49:15;;;;;;;0.50;0.50;;;;;;;;;;5054269;28;20020;-87
2023/01/13 01:52:04;;;;;;;0.77;0.60;;;;;;;;;;5056069;28;20053;-86
2023/01/13 01:54:54;;;;;;;0.60;0.60;;;;;;;;;;5063638;28;20036;-80
2023/01/13 01:57:48;;;;;;;0.73;0.73;;;;;;;;;;5066969;28;20025;-84
2023/01/13 02:00:14;;;;;;;1.17;0.82;;;;;;;;;;5058992;28;20041;-83
2023/01/13 02:02:42;;;;;;;0.75;0.63;;;;;;;;;;5057970;28;20044;-80
2023/01/13 02:05:08;;;;;;;1.48;1.38;;;;;;;;;;5065668;28;20052;-81
2023/01/13 02:07:37;;;;;;;0.93;0.90;;;;;;;;;;5058634;28;20530;-87
2023/01/13 02:10:06;;;;;;;1.15;1.05;;;;;;;;;;5056995;28;20029;-85
2023/01/13 02:12:32;;;;;;;0.73;0.73;;;;;;;;;;5063197;28;20063;-86
2023/01/13 02:15:02;;;;;;;0.50;0.47;;;;;;;;;;5060412;28;20036;-85
2023/01/13 02:18:07;;;;;;;1.35;1.23;;;;;;;;;;5058143;28;20377;-81
2023/01/13 02:20:55;;;;;;;2.80;0.98;;;;;;;;;;5052768;28;20025;-81
2023/01/13 02:26:32;;;;;;;0.70;0.70;;;;;;;;;;5060990;28;20035;-82
2023/01/13 02:32:26;;;;;;;1.23;1.13;;;;;;;;;;5061749;28;20039;-83
2023/01/13 02:35:01;;;;;;;1.80;1.07;;;;;;;;;;5066755;28;20542;-83
2023/01/13 02:37:30;;;;;;;0.93;0.63;;;;;;;;;;5062305;28;20349;-80
2023/01/13 02:40:16;;;;;;;1.55;1.33;;;;;;;;;;5059347;28;20525;-82
2023/01/13 02:45:49;;;;;;;0.63;0.55;;;;;;;;;;5061687;28;20028;-81
2023/01/13 02:48:17;;;;;;;1.40;1.30;;;;;;;;;;5055546;28;20060;-84
2023/01/13 02:50:52;;;;;;;1.70;1.15;;;;;;;;;;5064348;28;20095;-83
2023/01/13 02:53:25;;;;;;;0.93;0.90;;;;;;;;;;5052866;28;20033;-82
2023/01/13 02:55:52;;;;;;;1.25;1.00;;;;;;;;;;5066637;28;20131;-82
2023/01/13 02:58:23;;;;;;;1.45;1.35;;;;;;;;;;5058925;28;20039;-84
2023/01/13 03:00:48;;;;;;;1.38;1.10;;;;;;;;;;5058170;28;20074;-81
2023/01/13 03:03:14;;;;;;;0.60;0.60;;;;;;;;;;5059348;28;20028;-83
2023/01/13 03:05:42;;;;;;;3.08;1.45;;;;;;;;;;5056025;28;20028;-81
2023/01/13 03:08:19;;;;;;;1.33;1.23;;;;;;;;;;5054297;28;20108;-82
2023/01/13 03:11:06;;;;;;;0.65;0.65;;;;;;;;;;5054859;28;21565;-81
2023/01/13 03:14:25;;;;;;;2.45;1.45;;;;;;;;;;5062159;28;20086;-83
2023/01/13 03:16:53;;;;;;;0.38;0.38;;;;;;;;;;5020125;28;20099;-82
2023/01/13 03:19:37;;;;;;;1.17;1.08;;;;;;;;;;5020597;28;20029;-82
2023/01/13 03:22:03;;;;;;;5.10;1.40;;;;;;;;;;5038414;28;20107;-83
2023/01/13 03:24:43;;;;;;;2.60;1.52;;;;;;;;;;5052695;28;20025;-81
2023/01/13 03:27:30;;;;;;;1.70;1.08;;;;;;;;;;5055133;28;20816;-81
2023/01/13 03:30:06;;;;;;;1.90;1.38;;;;;;;;;;5060856;28;20059;-81
2023/01/13 03:32:34;;;;;;;1.50;1.35;;;;;;;;;;5048563;28;20017;-81
2023/01/13 03:35:03;;;;;;;2.60;1.20;;;;;;;;;;5061277;28;20035;-79
2023/01/13 03:37:36;;;;;;;1.27;1.17;;;;;;;;;;5059138;28;20059;-84
2023/01/13 03:40:14;;;;;;;1.55;1.05;;;;;;;;;;5059369;28;20552;-82
2023/01/13 03:44:20;;;;;;;0.95;0.77;;;;;;;;;;5061477;28;20082;-82
2023/01/13 03:45:31;;;;;;;0.90;0.90;;;;;;;;;;5066076;28;20120;-81
2023/01/13 03:47:59;;;;;;;1.30;1.20;;;;;;;;;;5055163;28;20052;-82
2023/01/13 03:50:39;;;;;;;1.35;1.10;;;;;;;;;;5057816;28;20035;-82
2023/01/13 03:53:12;;;;;;;2.17;1.38;;;;;;;;;;5062315;28;20534;-83
2023/01/13 03:55:44;;;;;;;0.75;0.75;;;;;;;;;;5058678;28;20049;-82
2023/01/13 03:58:29;;;;;;;0.82;0.82;;;;;;;;;;5054906;28;20458;-81
2023/01/13 04:00:58;;;;;;;1.13;1.02;;;;;;;;;;5051632;28;20040;-83
2023/01/13 04:03:54;;;;;;;1.17;1.08;;;;;;;;;;5067720;28;20465;-83
2023/01/13 04:06:34;;;;;;;1.98;1.80;;;;;;;;;;5056114;28;20082;-85
2023/01/13 04:09:40;;;;;;;5.35;2.75;;;;;;;;;;5053834;28;20047;-82
2023/01/13 04:12:23;;;;;;;2.53;1.95;;;;;;;;;;5041395;28;20033;-82
2023/01/13 04:14:50;;;;;;;2.88;1.35;;;;;;;;;;5064521;28;20103;-82
2023/01/13 04:17:15;;;;;;;1.58;1.42;;;;;;;;;;5056403;28;20053;-82
2023/01/13 04:19:41;;;;;;;2.10;1.48;;;;;;;;;;5060581;28;20056;-80
2023/01/13 04:22:06;;;;;;;1.48;1.33;;;;;;;;;;5055723;28;20036;-84
2023/01/13 04:24:32;;;;;;;1.02;0.93;;;;;;;;;;5052502;28;20044;-82
2023/01/13 04:26:57;;;;;;;1.02;0.77;;;;;;;;;;5062408;28;20036;-83
2023/01/13 04:29:23;;;;;;;2.97;2.33;;;;;;;;;;5058089;28;20385;-81
2023/01/13 04:31:48;;;;;;;2.83;1.60;;;;;;;;;;5054438;28;20052;-82
2023/01/13 04:34:13;;;;;;;1.80;1.55;;;;;;;;;;5052719;28;20043;-83
2023/01/13 04:36:39;;;;;;;1.13;1.00;;;;;;;;;;5049401;28;20091;-82
2023/01/13 04:39:04;;;;;;;1.27;1.17;;;;;;;;;;5053679;28;20033;-82
2023/01/13 04:41:56;;;;;;;1.50;1.27;;;;;;;;;;5054215;28;20037;-80
2023/01/13 04:44:18;;;;;;;0.93;0.93;;;;;;;;;;5057705;28;20028;-84
2023/01/13 04:46:43;;;;;;;3.03;1.80;;;;;;;;;;5054819;28;20487;-84
2023/01/13 04:49:09;;;;;;;1.65;1.20;;;;;;;;;;5061278;28;20036;-86
2023/01/13 04:51:34;;;;;;;2.75;1.83;;;;;;;;;;5054617;28;20416;-81
2023/01/13 04:53:59;;;;;;;0.82;0.82;;;;;;;;;;5054933;28;20392;-84
2023/01/13 04:56:25;;;;;;;1.83;1.02;;;;;;;;;;5058621;28;20041;-83
2023/01/13 04:58:50;;;;;;;1.13;0.70;;;;;;;;;;5058481;28;20025;-85
2023/01/13 05:01:16;;;;;;;1.55;1.00;;;;;;;;;;5053784;28;20119;-85
2023/01/13 05:03:41;;;;;;;1.80;0.65;;;;;;;;;;5056677;28;20032;-82
2023/01/13 05:06:06;;;;;;;2.20;1.25;;;;;;;;;;5055054;28;20055;-82
2023/01/13 05:08:32;;;;;;;0.57;0.57;;;;;;;;;;5056828;28;20032;-84
2023/01/13 05:16:58;;;;;;;2.00;1.13;;;;;;;;;;5055409;28;20057;-85
2023/01/13 05:19:14;;;;;;;0.30;0.30;;;;;;;;;;5061918;28;20491;-82
2023/01/13 05:27:07;;;;;;;0.93;0.73;;;;;;;;;;5061591;28;20094;-81
2023/01/13 05:29:32;;;;;;;0.63;0.40;;;;;;;;;;5066831;28;20021;-81
2023/01/13 05:32:00;;;;;;;0.88;0.50;;;;;;;;;;5060181;28;20384;-83
2023/01/13 05:34:25;;;;;;;0.43;0.43;;;;;;;;;;5060832;28;20076;-84
2023/01/13 05:36:51;;;;;;;0.80;0.35;;;;;;;;;;5062820;28;20488;-81
2023/01/13 05:39:16;;;;;;;0.50;0.50;;;;;;;;;;5064195;28;20055;-82
2023/01/13 05:44:26;;;;;;;0.82;0.82;;;;;;;;;;5060950;28;20044;-81
2023/01/13 05:46:51;;;;;;;0.40;0.40;;;;;;;;;;5061050;28;20024;-82
2023/01/13 05:49:17;;;;;;;0.43;0.43;;;;;;;;;;5062686;28;20028;-84
2023/01/13 05:51:42;;;;;;;0.63;0.63;;;;;;;;;;5058340;28;20061;-80
2023/01/13 05:54:07;;;;;;;0.50;0.50;;;;;;;;;;5053681;28;20035;-83
2023/01/13 05:56:33;;;;;;;2.15;1.98;;;;;;;;;;5053572;28;20136;-82
2023/01/13 05:58:59;;;;;;;0.30;0.30;;;;;;;;;;5049978;28;20048;-82
2023/01/13 06:01:24;;;;;;;0.32;0.32;;;;;;;;;;5046573;28;20383;-79
2023/01/13 06:04:00;;;;;;;0.25;0.25;;;;;;;;;;5057615;28;20047;-83
2023/01/13 06:06:26;;;;;;;0.20;0.20;;;;;;;;;;5057465;28;20484;-82
2023/01/13 06:08:51;;;;;;;0.30;0.30;;;;;;;;;;5051257;28;20025;-81
2023/01/13 06:11:16;;;;;;;2.05;1.85;;;;;;;;;;5051030;28;20064;-78
2023/01/13 06:13:42;;;;;;;4.55;3.33;;;;;;;;;;5053087;28;20111;-81
2023/01/13 06:16:08;;;;;;;4.13;2.33;;;;;;;;;;5052345;28;20021;-81
2023/01/13 06:18:33;;;;;;;5.45;3.55;;;;;;;;;;5063114;28;20468;-81
2023/01/13 06:20:59;;;;;;;3.78;3.13;;;;;;;;;;5060025;28;20025;-82
2023/01/13 06:23:25;;;;;;;3.67;2.63;;;;;;;;;;5055619;28;20037;-81
2023/01/13 06:26:15;;;;;;;3.22;2.30;;;;;;;;;;5048008;28;20079;-83
2023/01/13 06:28:41;;;;;;;4.32;2.80;;;;;;;;;;5044659;28;20025;-85
2023/01/13 06:31:08;;;;;;;4.25;2.78;;;;;;;;;;5057156;28;20446;-81
2023/01/13 06:33:40;;;;;;;2.63;2.42;;;;;;;;;;5056658;28;20024;-81
2023/01/13 06:36:13;;;;;;;3.90;3.03;;;;;;;;;;5060000;28;20036;-79
2023/01/13 06:38:41;;;;;;;5.13;3.15;;;;;;;;;;5049007;28;20553;-82
2023/01/13 06:41:07;;;;;;;3.20;2.83;;;;;;;;;;5059520;28;20412;-83
2023/01/13 06:43:33;;;;;;;7.28;2.70;;;;;;;;;;5059778;28;20025;-84
2023/01/13 06:45:59;;;;;;;5.55;2.45;;;;;;;;;;5056223;28;20025;-81
2023/01/13 06:48:31;;;;;;;10.05;3.65;;;;;;;;;;5063021;28;20054;-82
2023/01/13 06:50:57;;;;;;;3.58;2.67;;;;;;;;;;5049789;28;20024;-80
2023/01/13 06:53:23;;;;;;;5.07;2.47;;;;;;;;;;5049353;28;20063;-79
2023/01/13 06:55:48;;;;;;;2.80;2.45;;;;;;;;;;5048555;28;20119;-81
2023/01/13 06:58:14;;;;;;;2.45;1.98;;;;;;;;;;5058126;28;20040;-81
2023/01/13 07:00:39;;;;;;;3.90;1.75;;;;;;;;;;5057944;28;20041;-81
2023/01/13 07:03:11;;;;;;;7.55;2.63;;;;;;;;;;5058518;28;20514;-82
2023/01/13 07:05:36;;;;;;;3.83;2.25;;;;;;;;;;5051253;28;20033;-81
2023/01/13 07:08:02;;;;;;;2.10;1.67;;;;;;;;;;5062394;28;20383;-79
2023/01/13 07:10:29;;;;;;;2.05;1.60;;;;;;;;;;5056960;28;20039;-82
2023/01/13 07:15:39;;;;;;;3.60;2.78;;;;;;;;;;5059257;28;20084;-81
2023/01/13 07:18:04;;;;;;;1.67;1.58;;;;;;;;;;5052323;28;20533;-81
2023/01/13 07:20:30;;;;;;;3.08;2.53;;;;;;;;;;5055096;28;20465;-81
2023/01/13 07:22:56;;;;;;;5.60;2.65;;;;;;;;;;5058445;28;20024;-83
2023/01/13 07:25:22;;;;;;;3.15;2.50;;;;;;;;;;5056864;28;20030;-79
2023/01/13 07:27:48;;;;;;;2.97;1.90;;;;;;;;;;5064885;28;20032;-82
2023/01/13 07:30:13;;;;;;;5.68;2.97;;;;;;;;;;5060178;28;20029;-83
2023/01/13 07:32:39;;;;;;;2.15;1.88;;;;;;;;;;5060628;28;20064;-80
2023/01/13 07:35:05;;;;;;;5.18;3.72;;;;;;;;;;5057444;28;20033;-82
2023/01/13 07:37:32;;;;;;;3.83;2.53;;;;;;;;;;5061500;28;20032;-80
2023/01/13 07:39:58;;;;;;;4.97;2.53;;;;;;;;;;5056875;28;20068;-82
2023/01/13 07:45:08;;;;;;;8.55;4.20;;;;;;;;;;5060552;28;20074;-84
2023/01/13 07:47:33;;;;;;;3.60;2.88;;;;;;;;;;5057032;28;20075;-80
2023/01/13 07:49:58;;;;;;;3.47;2.65;;;;;;;;;;5054089;28;20028;-81
2023/01/13 07:52:24;;;;;;;4.20;2.10;;;;;;;;;;5058403;28;20435;-82
2023/01/13 07:54:49;;;;;;;3.15;2.33;;;;;;;;;;5054289;28;20045;-81
2023/01/13 07:57:15;;;;;;;5.15;3.20;;;;;;;;;;5055642;28;20033;-80
2023/01/13 07:59:41;;;;;;;3.97;2.45;;;;;;;;;;5055872;28;20052;-81
2023/01/13 08:02:11;;;;;;;5.75;3.80;;;;;;;;;;5053474;28;20393;-83
2023/01/13 08:04:36;;;;;;;7.35;3.60;;;;;;;;;;5055257;28;20056;-80
2023/01/13 08:07:03;;;;;;;14.73;8.27;;;;;;;;;;5064032;28;20056;-82
2023/01/13 08:09:28;;;;;;;4.13;2.67;;;;;;;;;;5059292;28;20029;-81
2023/01/13 08:14:38;;;;;;;4.38;2.42;;;;;;;;;;5057330;28;20112;-82
2023/01/13 08:17:03;;;;;;;4.75;2.85;;;;;;;;;;5053579;28;20104;-80
2023/01/13 08:19:29;;;;;;;2.47;1.92;;;;;;;;;;5055089;28;20403;-84
2023/01/13 08:21:55;;;;;;;2.78;2.35;;;;;;;;;;5052274;28;20024;-84
2023/01/13 08:24:21;;;;;;;4.95;2.80;;;;;;;;;;5059932;28;20094;-83
2023/01/13 08:26:46;;;;;;;6.15;3.10;;;;;;;;;;5053074;28;20029;-79
2023/01/13 08:29:12;;;;;;;5.97;3.67;;;;;;;;;;5057263;28;20050;-81
2023/01/13 08:31:37;;;;;;;2.35;2.15;;;;;;;;;;5058086;28;20083;-81
2023/01/13 08:34:02;;;;;;;6.72;3.03;;;;;;;;;;5055394;28;20405;-81
2023/01/13 08:36:28;;;;;;;4.47;2.80;;;;;;;;;;5054915;28;20068;-80
2023/01/13 08:38:53;;;;;;;4.65;3.10;;;;;;;;;;5065229;28;20052;-79
2023/01/13 08:41:53;;;;;;;3.25;2.45;;;;;;;;;;5059287;28;20024;-80
2023/01/13 08:44:05;;;;;;;4.32;2.03;;;;;;;;;;5055123;28;20044;-82
2023/01/13 08:46:30;;;;;;;3.25;2.53;;;;;;;;;;5061788;28;20037;-81
2023/01/13 08:48:56;;;;;;;5.78;3.65;;;;;;;;;;5053770;28;20465;-80
2023/01/13 08:51:21;;;;;;;3.45;1.92;;;;;;;;;;5061194;28;20054;-79
2023/01/13 08:53:47;;;;;;;4.38;2.17;;;;;;;;;;5062840;28;20103;-79
2023/01/13 08:56:13;;;;;;;3.55;2.70;;;;;;;;;;5057921;28;20111;-80
2023/01/13 08:58:39;;;;;;;4.57;2.95;;;;;;;;;;5057440;28;20036;-82
2023/01/13 09:01:06;;;;;;;3.75;2.30;;;;;;;;;;5054307;28;20210;-82
2023/01/13 09:03:31;;;;;;;4.47;2.15;;;;;;;;;;5056967;28;20035;-81
2023/01/13 09:05:56;;;;;;;3.67;2.45;;;;;;;;;;5062008;28;20481;-81
2023/01/13 09:08:22;;;;;;;5.35;3.78;;;;;;;;;;5056745;28;20498;-81
2023/01/13 09:10:47;;;;;;;3.88;2.75;;;;;;;;;;5061928;28;20031;-80
2023/01/13 09:13:14;;;;;;;3.30;2.50;;;;;;;;;;5057383;28;20029;-80
2023/01/13 09:15:42;;;;;;;3.08;1.88;;;;;;;;;;5058453;28;20028;-81
2023/01/13 09:18:08;;;;;;;1.88;1.77;;;;;;;;;;5054864;28;20025;-81
2023/01/13 09:20:34;;;;;;;4.43;2.78;;;;;;;;;;5057749;28;20051;-81
2023/01/13 09:22:59;;;;;;;2.65;1.90;;;;;;;;;;5059708;28;20417;-80
2023/01/13 09:25:25;;;;;;;2.25;1.50;;;;;;;;;;5061856;28;20037;-82
2023/01/13 09:27:50;;;;;;;4.78;2.70;;;;;;;;;;5064910;28;20427;-82
2023/01/13 09:30:16;;;;;;;1.58;1.42;;;;;;;;;;5063203;28;20031;-83
2023/01/13 09:32:41;;;;;;;2.80;1.80;;;;;;;;;;5065143;28;21332;-82
2023/01/13 09:35:08;;;;;;;1.52;1.42;;;;;;;;;;5060360;28;20035;-82
2023/01/13 09:37:39;;;;;;;3.17;2.08;;;;;;;;;;5060037;28;20393;-81
2023/01/13 09:40:16;;;;;;;3.03;2.00;;;;;;;;;;5063643;28;20128;-81
2023/01/13 09:45:54;;;;;;;4.50;2.88;;;;;;;;;;5062961;28;20598;-80
2023/01/13 09:48:25;;;;;;;2.55;1.80;;;;;;;;;;5062161;28;20568;-81
2023/01/13 09:51:02;;;;;;;2.10;1.25;;;;;;;;;;5063921;28;20044;-81
2023/01/13 09:53:33;;;;;;;2.85;1.90;;;;;;;;;;5064046;28;20029;-82
2023/01/13 09:55:59;;;;;;;2.30;1.83;;;;;;;;;;5065755;28;20048;-81
2023/01/13 09:58:25;;;;;;;2.03;1.17;;;;;;;;;;5059916;28;20024;-81
2023/01/13 10:01:05;;;;;;;1.73;1.58;;;;;;;;;;5093896;28;20440;-81
2023/01/13 10:03:33;;;;;;;2.35;1.52;;;;;;;;;;5057873;28;20504;-84
2023/01/13 10:06:10;;;;;;;2.60;1.98;;;;;;;;;;5057978;28;20049;-82
2023/01/13 10:08:41;;;;;;;1.85;1.38;;;;;;;;;;5059374;28;20531;-83
2023/01/13 10:14:31;;;;;;;1.00;0.90;;;;;;;;;;5059465;28;20387;-82
2023/01/13 10:16:59;;;;;;;1.75;1.05;;;;;;;;;;5056012;28;20023;-80
2023/01/13 10:19:29;;;;;;;2.10;1.90;;;;;;;;;;5056990;28;20036;-83
2023/01/13 10:22:11;;;;;;;2.17;1.23;;;;;;;;;;5068218;28;20024;-82
2023/01/13 10:25:19;;;;;;;0.70;0.70;;;;;;;;;;5055075;28;20033;-81
2023/01/13 10:27:48;;;;;;;2.55;1.88;;;;;;;;;;5058559;28;20040;-83
2023/01/13 10:30:21;;;;;;;1.23;1.13;;;;;;;;;;5062813;28;20133;-80
2023/01/13 10:32:52;;;;;;;2.45;1.77;;;;;;;;;;5064161;28;20032;-86
2023/01/13 10:35:51;;;;;;;0.98;0.82;;;;;;;;;;5062465;28;20099;-82
2023/01/13 10:38:21;;;;;;;1.17;1.05;;;;;;;;;;5062492;28;20244;-87
2023/01/13 10:40:49;;;;;;;2.60;1.80;;;;;;;;;;5058334;28;20052;-83
2023/01/13 10:43:15;;;;;;;2.13;1.25;;;;;;;;;;5063821;28;20021;-82
2023/01/13 10:45:40;;;;;;;1.38;0.80;;;;;;;;;;5059177;28;20433;-82
2023/01/13 10:48:13;;;;;;;1.30;0.88;;;;;;;;;;5060272;28;20111;-83
2023/01/13 10:50:39;;;;;;;0.90;0.90;;;;;;;;;;5061475;28;20103;-81
2023/01/13 10:53:24;;;;;;;1.10;1.00;;;;;;;;;;5057964;28;20384;-83
2023/01/13 10:56:03;;;;;;;0.68;0.68;;;;;;;;;;5059504;28;20041;-82
2023/01/13 10:58:29;;;;;;;1.35;1.00;;;;;;;;;;5063032;28;20043;-85
2023/01/13 11:01:03;;;;;;;0.68;0.60;;;;;;;;;;5054565;28;20489;-84
2023/01/13 11:03:40;;;;;;;0.80;0.80;;;;;;;;;;5055755;28;20060;-82
2023/01/13 11:06:06;;;;;;;1.73;0.90;;;;;;;;;;5061596;28;20839;-83
2023/01/13 11:08:46;;;;;;;4.50;1.08;;;;;;;;;;5060700;28;20103;-81
2023/01/13 11:11:31;;;;;;;2.58;1.52;;;;;;;;;;5065161;28;20465;-82
2023/01/13 11:16:54;;;;;;;1.98;0.95;;;;;;;;;;5057767;28;20027;-81
2023/01/13 11:19:22;;;;;;;2.08;1.88;;;;;;;;;;5062242;28;20127;-82
2023/01/13 11:22:22;;;;;;;1.77;1.47;;;;;;;;;;5059331;28;20384;-81
2023/01/13 11:24:59;;;;;;;2.40;1.85;;;;;;;;;;5056330;28;20499;-81
2023/01/13 11:27:52;;;;;;;2.63;1.80;;;;;;;;;;5059449;28;20043;-83
2023/01/13 11:30:41;;;;;;;6.43;3.80;;;;;;;;;;5053997;28;20029;-82
2023/01/13 11:33:11;;;;;;;1.40;1.17;;;;;;;;;;5058080;28;20104;-81
2023/01/13 11:35:44;;;;;;;4.82;2.58;;;;;;;;;;5056099;28;20029;-81
2023/01/13 11:38:22;;;;;;;5.25;2.22;;;;;;;;;;5059176;28;20032;-82
2023/01/13 11:40:49;;;;;;;1.30;1.20;;;;;;;;;;5053195;28;20104;-81
2023/01/13 11:43:30;;;;;;;2.85;1.67;;;;;;;;;;5058751;28;20025;-81
2023/01/13 11:45:58;;;;;;;4.18;2.53;;;;;;;;;;5056898;28;20087;-81
2023/01/13 11:48:27;;;;;;;1.08;1.05;;;;;;;;;;5057288;28;20031;-81
2023/01/13 11:51:02;;;;;;;2.67;0.98;;;;;;;;;;5060292;28;20497;-83
2023/01/13 11:53:46;;;;;;;2.85;0.95;;;;;;;;;;5054809;28;20116;-83
2023/01/13 11:56:14;;;;;;;0.52;0.50;;;;;;;;;;5060514;28;20040;-84
2023/01/13 11:58:57;;;;;;;0.95;0.88;;;;;;;;;;5056443;28;20029;-84
2023/01/13 12:01:52;;;;;;;0.70;0.68;;;;;;;;;;5057751;28;20047;-84
2023/01/13 12:04:23;;;;;;;1.98;1.50;;;;;;;;;;5061096;28;20021;-83
2023/01/13 12:07:20;;;;;;;0.63;0.63;;;;;;;;;;5058994;28;20484;-83
2023/01/13 12:10:01;;;;;;;1.20;1.10;;;;;;;;;;5048572;28;20077;-84
2023/01/13 12:12:42;;;;;;;2.72;1.67;;;;;;;;;;5057783;28;20103;-83
2023/01/13 12:15:20;;;;;;;3.10;1.63;;;;;;;;;;5061429;28;20036;-83
2023/01/13 12:18:16;;;;;;;1.30;1.05;;;;;;;;;;5057449;28;20210;-83
2023/01/13 12:21:04;;;;;;;2.00;1.60;;;;;;;;;;5055728;28;20024;-83
2023/01/13 12:24:12;;;;;;;1.05;0.70;;;;;;;;;;5060271;28;20087;-83
2023/01/13 12:26:42;;;;;;;2.80;1.77;;;;;;;;;;5060960;28;20549;-82
2023/01/13 12:29:17;;;;;;;2.38;1.58;;;;;;;;;;5067207;28;20028;-82
2023/01/13 12:31:46;;;;;;;1.17;1.08;;;;;;;;;;5067241;28;20428;-82
2023/01/13 12:34:11;;;;;;;1.27;0.90;;;;;;;;;;5065033;28;20056;-81
2023/01/13 12:36:58;;;;;;;3.28;1.73;;;;;;;;;;5064364;28;20405;-83
2023/01/13 12:39:35;;;;;;;2.50;1.98;;;;;;;;;;5058916;28;20036;-84
2023/01/13 12:45:11;;;;;;;2.28;0.90;;;;;;;;;;5061293;28;20423;-84
2023/01/13 12:47:39;;;;;;;4.13;2.33;;;;;;;;;;5059967;28;20033;-85
2023/01/13 12:50:39;;;;;;;1.55;1.42;;;;;;;;;;5059573;28;20035;-82
2023/01/13 12:53:31;;;;;;;4.25;1.98;;;;;;;;;;5049036;28;20469;-81
2023/01/13 12:56:34;;;;;;;2.47;1.77;;;;;;;;;;5058531;28;20447;-83
2023/01/13 12:59:17;;;;;;;3.50;2.25;;;;;;;;;;5064782;28;20468;-84
2023/01/13 13:01:51;;;;;;;2.75;2.47;;;;;;;;;;5064009;28;20097;-82
2023/01/13 13:04:19;;;;;;;3.35;1.98;;;;;;;;;;5061590;28;20036;-86
2023/01/13 13:06:53;;;;;;;2.22;1.33;;;;;;;;;;5067662;28;20041;-85
2023/01/13 13:09:29;;;;;;;2.85;1.73;;;;;;;;;;5062658;28;20118;-83
2023/01/13 13:14:38;;;;;;;2.47;1.75;;;;;;;;;;5060650;28;20623;-82
2023/01/13 13:17:30;;;;;;;2.20;1.88;;;;;;;;;;5062864;28;20017;-81
2023/01/13 13:19:58;;;;;;;2.35;1.35;;;;;;;;;;5067148;28;20077;-83
2023/01/13 13:22:26;;;;;;;1.98;1.75;;;;;;;;;;5064152;28;20024;-84
2023/01/13 13:24:55;;;;;;;1.63;1.50;;;;;;;;;;5064530;28;20029;-81
2023/01/13 13:27:44;;;;;;;3.67;2.40;;;;;;;;;;5062818;28;20434;-84
2023/01/13 13:30:44;;;;;;;2.13;1.50;;;;;;;;;;5058692;28;20033;-82
2023/01/13 13:33:36;;;;;;;3.10;1.63;;;;;;;;;;5061574;28;20503;-84
2023/01/13 13:36:05;;;;;;;1.80;1.70;;;;;;;;;;5062164;28;20024;-83
2023/01/13 13:47:20;;;;;;;2.53;2.08;;;;;;;;;;5056074;28;20052;-81
2023/01/13 13:49:51;;;;;;;3.00;2.25;;;;;;;;;;5057905;28;20863;-83
2023/01/13 13:52:35;;;;;;;3.45;2.65;;;;;;;;;;5054930;28;20063;-83
2023/01/13 13:55:20;;;;;;;3.22;2.10;;;;;;;;;;5065020;28;20492;-83
2023/01/13 13:57:50;;;;;;;2.58;2.05;;;;;;;;;;5062058;28;20030;-82
2023/01/13 14:00:19;;;;;;;2.13;1.45;;;;;;;;;;5058232;28;20031;-81
2023/01/13 14:02:57;;;;;;;3.03;1.58;;;;;;;;;;5054753;28;20495;-80
2023/01/13 14:05:30;;;;;;;2.47;1.65;;;;;;;;;;5059431;28;20164;-83
2023/01/13 14:08:16;;;;;;;2.50;1.50;;;;;;;;;;5059244;28;20033;-84
2023/01/13 14:10:46;;;;;;;1.17;1.08;;;;;;;;;;5055133;28;20469;-82
2023/01/13 14:13:28;;;;;;;2.60;1.92;;;;;;;;;;5055152;28;20024;-85
2023/01/13 14:16:01;;;;;;;4.18;1.85;;;;;;;;;;5060792;28;20020;-85
2023/01/13 14:18:29;;;;;;;3.78;2.75;;;;;;;;;;5063768;28;20033;-84
2023/01/13 14:21:03;;;;;;;2.65;1.73;;;;;;;;;;5059264;28;20480;-83
2023/01/13 14:23:32;;;;;;;2.03;1.42;;;;;;;;;;5059676;28;20029;-81
2023/01/13 14:26:15;;;;;;;2.70;2.05;;;;;;;;;;5054518;28;20033;-80
2023/01/13 14:28:41;;;;;;;4.85;1.63;;;;;;;;;;5061889;28;20032;-82
2023/01/13 14:31:08;;;;;;;2.83;2.53;;;;;;;;;;5061527;28;20104;-82
2023/01/13 14:33:38;;;;;;;1.55;1.45;;;;;;;;;;5056441;28;20530;-79
2023/01/13 14:36:06;;;;;;;;;;;;;;;;;;5062634;28;20576;-83
2023/01/13 14:38:32;;;;;;;1.23;1.02;;;;;;;;;;5056367;28;19917;-79
2023/01/13 14:41:20;;;;;;;2.58;2.25;;;;;;;;;;5059272;28;20032;-79
2023/01/13 14:43:47;;;;;;;4.65;3.30;;;;;;;;;;5060021;28;20502;-82
2023/01/13 14:46:13;;;;;;;5.50;3.42;;;;;;;;;;5060254;28;20033;-79
2023/01/13 14:48:42;;;;;;;6.05;3.92;;;;;;;;;;5060120;28;20032;-80
2023/01/13 14:51:11;;;;;;;7.18;4.63;;;;;;;;;;5064024;28;20476;-81
2023/01/13 14:53:47;;;;;;;5.03;3.25;;;;;;;;;;5062753;28;20468;-80
2023/01/13 14:56:42;;;;;;;5.93;3.80;;;;;;;;;;5059418;28;20120;-80
2023/01/13 14:59:45;;;;;;;2.35;2.13;;;;;;;;;;5064084;28;20024;-79
2023/01/13 15:02:28;;;;;;;5.95;2.72;;;;;;;;;;5058404;28;20048;-80
2023/01/13 15:04:57;;;;;;;2.45;1.80;;;;;;;;;;5064916;28;20052;-81
2023/01/13 15:07:26;;;;;;;3.08;2.45;;;;;;;;;;5060240;28;20112;-81
2023/01/13 15:10:00;;;;;;;7.35;5.20;;;;;;;;;;5053191;28;20064;-80
2023/01/13 15:12:34;;;;;;;6.18;4.53;;;;;;;;;;5057868;28;20385;-82
2023/01/13 15:15:03;;;;;;;7.38;5.53;;;;;;;;;;5059034;28;20033;-81
2023/01/13 15:17:28;;;;;;;7.10;3.92;;;;;;;;;;5060171;28;20046;-81
2023/01/13 15:19:54;;;;;;;4.65;3.42;;;;;;;;;;5057958;28;20120;-84
2023/01/13 15:22:19;;;;;;;2.53;2.05;;;;;;;;;;5058835;28;20025;-83
2023/01/13 15:24:45;;;;;;;3.33;2.13;;;;;;;;;;5058578;28;20096;-80
2023/01/13 15:27:18;;;;;;;2.33;1.90;;;;;;;;;;5062528;28;20024;-81
2023/01/13 15:29:43;;;;;;;3.53;2.38;;;;;;;;;;5057086;28;20024;-83
2023/01/13 15:32:20;;;;;;;3.92;3.15;;;;;;;;;;5059522;28;20031;-81
2023/01/13 15:34:47;;;;;;;4.20;2.42;;;;;;;;;;5058488;28;20070;-80
2023/01/13 15:37:18;;;;;;;4.88;3.25;;;;;;;;;;5054747;28;20491;-81
2023/01/13 15:39:45;;;;;;;2.92;2.40;;;;;;;;;;5059891;28;20064;-82
2023/01/13 15:47:40;;;;;;;1.65;1.13;;;;;;;;;;5054827;28;20039;-81
2023/01/13 15:50:05;;;;;;;2.00;1.77;;;;;;;;;;5058343;28;20028;-80
2023/01/13 15:52:31;;;;;;;4.40;2.97;;;;;;;;;;5057599;28;21147;-83
2023/01/13 15:54:56;;;;;;;4.15;2.97;;;;;;;;;;5054001;28;20515;-86
2023/01/13 15:57:30;;;;;;;4.65;3.17;;;;;;;;;;5056986;28;20024;-86
2023/01/13 15:59:59;;;;;;;2.88;1.80;;;;;;;;;;5058070;28;20029;-82
2023/01/13 16:02:24;;;;;;;6.80;2.97;;;;;;;;;;5054444;28;20083;-83
2023/01/13 16:04:52;;;;;;;4.38;3.28;;;;;;;;;;5062495;28;20036;-85
2023/01/13 16:07:19;;;;;;;3.30;3.00;;;;;;;;;;5053673;28;20400;-83
2023/01/13 16:09:44;;;;;;;3.17;2.70;;;;;;;;;;5063414;28;20499;-85
2023/01/13 16:12:11;;;;;;;4.57;2.90;;;;;;;;;;5054520;28;20108;-84